sensor_id;sensor_type;location;lat;lon;timestamp;temperature;humidity
36002;DHT22;22070;50.922;5.430;2022-12-10T00:00:18;0.30;99.90
36002;DHT22;22070;50.922;5.430;2022-12-10T00:02:44;-0.40;99.90
36002;DHT22;22070;50.922;5.430;2022-12-10T00:05:09;-0.40;99.90
36002;DHT22;22070;50.922;5.430;2022-12-10T00:07:35;-0.30;99.90
36002;DHT22;22070;50.922;5.430;2022-12-10T00:10:01;-0.50;99.90
36002;DHT22;22070;50.922;5.430;2022-12-10T00:12:26;-0.30;99.90
36002;DHT22;22070;50.922;5.430;2022-12-10T00:14:52;-0.30;99.90
36002;DHT22;22070;50.922;5.430;2022-12-10T00:17:18;-0.30;99.90
36002;DHT22;22070;50.922;5.430;2022-12-10T00:19:43;-0.30;99.90
36002;DHT22;22070;50.922;5.430;2022-12-10T00:22:09;-0.40;99.90
36002;DHT22;22070;50.922;5.430;2022-12-10T00:24:34;-0.40;99.90
36002;DHT22;22070;50.922;5.430;2022-12-10T00:27:00;-0.40;99.90
36002;DHT22;22070;50.922;5.430;2022-12-10T00:29:26;-0.30;99.90
36002;DHT22;22070;50.922;5.430;2022-12-10T00:31:52;-0.30;99.90
36002;DHT22;22070;50.922;5.430;2022-12-10T00:34:17;-0.40;99.90
36002;DHT22;22070;50.922;5.430;2022-12-10T00:36:45;-0.30;99.90
36002;DHT22;22070;50.922;5.430;2022-12-10T00:39:13;-0.40;99.90
36002;DHT22;22070;50.922;5.430;2022-12-10T00:41:40;-0.40;99.90
36002;DHT22;22070;50.922;5.430;2022-12-10T00:44:05;-0.10;99.90
36002;DHT22;22070;50.922;5.430;2022-12-10T00:46:31;0.10;99.90
36002;DHT22;22070;50.922;5.430;2022-12-10T00:48:58;-0.50;99.90
36002;DHT22;22070;50.922;5.430;2022-12-10T00:51:26;-0.40;99.90
36002;DHT22;22070;50.922;5.430;2022-12-10T00:53:54;-0.40;99.90
36002;DHT22;22070;50.922;5.430;2022-12-10T00:56:22;-0.40;99.90
36002;DHT22;22070;50.922;5.430;2022-12-10T00:58:49;-0.40;99.90
36002;DHT22;22070;50.922;5.430;2022-12-10T01:01:36;-0.40;99.90
36002;DHT22;22070;50.922;5.430;2022-12-10T01:04:08;-0.10;99.90
36002;DHT22;22070;50.922;5.430;2022-12-10T01:06:50;0.70;99.90
36002;DHT22;22070;50.922;5.430;2022-12-10T01:09:23;-0.40;99.90
36002;DHT22;22070;50.922;5.430;2022-12-10T01:11:50;-0.60;99.90
36002;DHT22;22070;50.922;5.430;2022-12-10T01:14:26;0.00;99.90
36002;DHT22;22070;50.922;5.430;2022-12-10T01:17:01;-0.40;99.90
36002;DHT22;22070;50.922;5.430;2022-12-10T01:19:31;-0.40;99.90
36002;DHT22;22070;50.922;5.430;2022-12-10T01:21:57;-0.40;99.90
36002;DHT22;22070;50.922;5.430;2022-12-10T01:24:24;-0.50;99.90
36002;DHT22;22070;50.922;5.430;2022-12-10T01:26:50;-0.10;99.90
36002;DHT22;22070;50.922;5.430;2022-12-10T01:29:16;-0.30;99.90
36002;DHT22;22070;50.922;5.430;2022-12-10T01:31:42;-0.20;99.90
36002;DHT22;22070;50.922;5.430;2022-12-10T01:34:11;-0.20;99.90
36002;DHT22;22070;50.922;5.430;2022-12-10T01:36:40;0.50;99.90
36002;DHT22;22070;50.922;5.430;2022-12-10T01:39:08;0.10;99.90
36002;DHT22;22070;50.922;5.430;2022-12-10T01:41:45;0.40;99.90
36002;DHT22;22070;50.922;5.430;2022-12-10T01:46:42;0.10;99.90
36002;DHT22;22070;50.922;5.430;2022-12-10T01:49:17;0.10;99.90
36002;DHT22;22070;50.922;5.430;2022-12-10T01:51:46;0.20;99.90
36002;DHT22;22070;50.922;5.430;2022-12-10T01:54:18;0.20;99.90
36002;DHT22;22070;50.922;5.430;2022-12-10T01:56:47;0.30;99.90
36002;DHT22;22070;50.922;5.430;2022-12-10T01:59:15;0.30;99.90
36002;DHT22;22070;50.922;5.430;2022-12-10T02:04:33;0.50;99.90
36002;DHT22;22070;50.922;5.430;2022-12-10T02:09:54;0.70;99.90
36002;DHT22;22070;50.922;5.430;2022-12-10T02:12:27;0.50;99.90
36002;DHT22;22070;50.922;5.430;2022-12-10T02:15:04;0.50;99.90
36002;DHT22;22070;50.922;5.430;2022-12-10T02:17:36;0.60;99.90
36002;DHT22;22070;50.922;5.430;2022-12-10T02:23:00;0.60;99.90
36002;DHT22;22070;50.922;5.430;2022-12-10T02:25:43;0.60;99.90
36002;DHT22;22070;50.922;5.430;2022-12-10T02:30:39;0.70;99.90
36002;DHT22;22070;50.922;5.430;2022-12-10T02:33:07;0.80;99.90
36002;DHT22;22070;50.922;5.430;2022-12-10T02:35:35;0.70;99.90
36002;DHT22;22070;50.922;5.430;2022-12-10T02:38:16;0.80;99.90
36002;DHT22;22070;50.922;5.430;2022-12-10T02:40:46;0.70;99.90
36002;DHT22;22070;50.922;5.430;2022-12-10T02:43:14;0.90;99.90
36002;DHT22;22070;50.922;5.430;2022-12-10T02:45:41;0.70;99.90
36002;DHT22;22070;50.922;5.430;2022-12-10T02:48:08;0.90;99.90
36002;DHT22;22070;50.922;5.430;2022-12-10T02:50:34;0.80;99.90
36002;DHT22;22070;50.922;5.430;2022-12-10T02:53:00;1.10;99.90
36002;DHT22;22070;50.922;5.430;2022-12-10T02:55:26;0.80;99.90
36002;DHT22;22070;50.922;5.430;2022-12-10T02:58:02;0.80;99.90
36002;DHT22;22070;50.922;5.430;2022-12-10T03:00:39;0.80;99.90
36002;DHT22;22070;50.922;5.430;2022-12-10T03:03:14;0.90;99.90
36002;DHT22;22070;50.922;5.430;2022-12-10T03:05:46;1.10;99.90
36002;DHT22;22070;50.922;5.430;2022-12-10T03:08:28;1.00;99.90
36002;DHT22;22070;50.922;5.430;2022-12-10T03:11:11;1.00;99.90
36002;DHT22;22070;50.922;5.430;2022-12-10T03:16:28;1.00;99.90
36002;DHT22;22070;50.922;5.430;2022-12-10T03:18:58;1.00;99.90
36002;DHT22;22070;50.922;5.430;2022-12-10T03:21:26;1.10;99.90
36002;DHT22;22070;50.922;5.430;2022-12-10T03:23:53;1.20;99.90
36002;DHT22;22070;50.922;5.430;2022-12-10T03:26:21;1.10;99.90
36002;DHT22;22070;50.922;5.430;2022-12-10T03:28:51;1.10;99.90
36002;DHT22;22070;50.922;5.430;2022-12-10T03:31:19;1.00;99.90
36002;DHT22;22070;50.922;5.430;2022-12-10T03:33:45;1.00;99.90
36002;DHT22;22070;50.922;5.430;2022-12-10T03:36:12;0.90;99.90
36002;DHT22;22070;50.922;5.430;2022-12-10T03:38:39;1.60;99.90
36002;DHT22;22070;50.922;5.430;2022-12-10T03:41:05;1.20;99.90
36002;DHT22;22070;50.922;5.430;2022-12-10T03:43:31;0.90;99.90
36002;DHT22;22070;50.922;5.430;2022-12-10T03:45:56;1.40;99.90
36002;DHT22;22070;50.922;5.430;2022-12-10T03:48:22;1.00;99.90
36002;DHT22;22070;50.922;5.430;2022-12-10T03:50:47;0.90;99.90
36002;DHT22;22070;50.922;5.430;2022-12-10T03:53:13;0.90;99.90
36002;DHT22;22070;50.922;5.430;2022-12-10T03:55:39;0.90;99.90
36002;DHT22;22070;50.922;5.430;2022-12-10T03:58:05;0.90;99.90
36002;DHT22;22070;50.922;5.430;2022-12-10T04:00:30;0.90;99.90
36002;DHT22;22070;50.922;5.430;2022-12-10T04:02:56;1.00;99.90
36002;DHT22;22070;50.922;5.430;2022-12-10T04:05:22;1.00;99.90
36002;DHT22;22070;50.922;5.430;2022-12-10T04:07:47;1.80;99.90
36002;DHT22;22070;50.922;5.430;2022-12-10T04:10:13;1.00;99.90
36002;DHT22;22070;50.922;5.430;2022-12-10T04:12:39;1.10;99.90
36002;DHT22;22070;50.922;5.430;2022-12-10T04:15:05;1.10;99.90
36002;DHT22;22070;50.922;5.430;2022-12-10T04:17:49;1.10;99.90
36002;DHT22;22070;50.922;5.430;2022-12-10T04:20:15;1.20;99.90
36002;DHT22;22070;50.922;5.430;2022-12-10T04:22:59;1.10;99.90
36002;DHT22;22070;50.922;5.430;2022-12-10T04:25:44;1.10;99.90
36002;DHT22;22070;50.922;5.430;2022-12-10T04:28:29;1.20;99.90
36002;DHT22;22070;50.922;5.430;2022-12-10T04:30:54;1.10;99.90
36002;DHT22;22070;50.922;5.430;2022-12-10T04:33:20;1.10;99.90
36002;DHT22;22070;50.922;5.430;2022-12-10T04:35:45;0.90;99.90
36002;DHT22;22070;50.922;5.430;2022-12-10T04:38:11;0.90;99.90
36002;DHT22;22070;50.922;5.430;2022-12-10T04:40:37;1.00;99.90
36002;DHT22;22070;50.922;5.430;2022-12-10T04:43:02;1.00;99.90
36002;DHT22;22070;50.922;5.430;2022-12-10T04:45:28;1.00;99.90
36002;DHT22;22070;50.922;5.430;2022-12-10T04:47:53;1.10;99.90
36002;DHT22;22070;50.922;5.430;2022-12-10T04:50:19;2.20;99.90
36002;DHT22;22070;50.922;5.430;2022-12-10T04:52:44;1.00;99.90
36002;DHT22;22070;50.922;5.430;2022-12-10T04:55:10;1.60;99.90
36002;DHT22;22070;50.922;5.430;2022-12-10T04:57:36;1.10;99.90
36002;DHT22;22070;50.922;5.430;2022-12-10T05:00:02;1.20;99.90
36002;DHT22;22070;50.922;5.430;2022-12-10T05:02:28;1.00;99.90
36002;DHT22;22070;50.922;5.430;2022-12-10T05:04:53;1.50;99.90
36002;DHT22;22070;50.922;5.430;2022-12-10T05:07:19;1.10;99.90
36002;DHT22;22070;50.922;5.430;2022-12-10T05:09:44;1.10;99.90
36002;DHT22;22070;50.922;5.430;2022-12-10T05:12:10;1.30;99.90
36002;DHT22;22070;50.922;5.430;2022-12-10T05:14:36;1.00;99.90
36002;DHT22;22070;50.922;5.430;2022-12-10T05:17:01;1.10;99.90
36002;DHT22;22070;50.922;5.430;2022-12-10T05:19:27;1.50;99.90
36002;DHT22;22070;50.922;5.430;2022-12-10T05:21:53;1.10;99.90
36002;DHT22;22070;50.922;5.430;2022-12-10T05:24:38;1.10;99.90
36002;DHT22;22070;50.922;5.430;2022-12-10T05:27:04;1.00;99.90
36002;DHT22;22070;50.922;5.430;2022-12-10T05:29:30;1.10;99.90
36002;DHT22;22070;50.922;5.430;2022-12-10T05:31:57;0.50;99.90
36002;DHT22;22070;50.922;5.430;2022-12-10T05:34:22;1.10;99.90
36002;DHT22;22070;50.922;5.430;2022-12-10T05:36:48;1.50;99.90
36002;DHT22;22070;50.922;5.430;2022-12-10T05:39:14;1.20;99.90
36002;DHT22;22070;50.922;5.430;2022-12-10T05:41:40;1.20;99.90
36002;DHT22;22070;50.922;5.430;2022-12-10T05:44:06;1.20;99.90
36002;DHT22;22070;50.922;5.430;2022-12-10T05:46:34;1.20;99.90
36002;DHT22;22070;50.922;5.430;2022-12-10T05:49:01;1.20;99.90
36002;DHT22;22070;50.922;5.430;2022-12-10T05:51:31;1.40;99.90
36002;DHT22;22070;50.922;5.430;2022-12-10T05:53:58;1.30;99.90
36002;DHT22;22070;50.922;5.430;2022-12-10T05:56:24;1.20;99.90
36002;DHT22;22070;50.922;5.430;2022-12-10T05:58:53;1.20;99.90
36002;DHT22;22070;50.922;5.430;2022-12-10T06:01:21;1.20;99.90
36002;DHT22;22070;50.922;5.430;2022-12-10T06:03:47;1.20;99.90
36002;DHT22;22070;50.922;5.430;2022-12-10T06:06:27;1.30;99.90
36002;DHT22;22070;50.922;5.430;2022-12-10T06:08:54;0.30;99.90
36002;DHT22;22070;50.922;5.430;2022-12-10T06:11:21;1.30;99.90
36002;DHT22;22070;50.922;5.430;2022-12-10T06:13:47;1.30;99.90
36002;DHT22;22070;50.922;5.430;2022-12-10T06:16:14;1.10;99.90
36002;DHT22;22070;50.922;5.430;2022-12-10T06:18:41;1.20;99.90
36002;DHT22;22070;50.922;5.430;2022-12-10T06:21:08;1.10;99.90
36002;DHT22;22070;50.922;5.430;2022-12-10T06:23:35;1.20;99.90
36002;DHT22;22070;50.922;5.430;2022-12-10T06:26:15;1.10;99.90
36002;DHT22;22070;50.922;5.430;2022-12-10T06:28:45;1.10;99.90
36002;DHT22;22070;50.922;5.430;2022-12-10T06:31:11;1.00;99.90
36002;DHT22;22070;50.922;5.430;2022-12-10T06:33:37;1.10;99.90
36002;DHT22;22070;50.922;5.430;2022-12-10T06:36:04;1.20;99.90
36002;DHT22;22070;50.922;5.430;2022-12-10T06:38:31;1.00;99.90
36002;DHT22;22070;50.922;5.430;2022-12-10T06:40:56;1.60;99.90
36002;DHT22;22070;50.922;5.430;2022-12-10T06:43:22;1.20;99.90
36002;DHT22;22070;50.922;5.430;2022-12-10T06:45:47;1.60;99.90
36002;DHT22;22070;50.922;5.430;2022-12-10T06:48:13;1.00;99.90
36002;DHT22;22070;50.922;5.430;2022-12-10T06:50:39;1.20;99.90
36002;DHT22;22070;50.922;5.430;2022-12-10T06:53:04;1.50;99.90
36002;DHT22;22070;50.922;5.430;2022-12-10T06:55:30;2.00;99.90
36002;DHT22;22070;50.922;5.430;2022-12-10T06:57:56;1.00;99.90
36002;DHT22;22070;50.922;5.430;2022-12-10T07:00:21;1.00;99.90
36002;DHT22;22070;50.922;5.430;2022-12-10T07:02:48;1.10;99.90
36002;DHT22;22070;50.922;5.430;2022-12-10T07:05:14;1.40;99.90
36002;DHT22;22070;50.922;5.430;2022-12-10T07:07:40;0.90;99.90
36002;DHT22;22070;50.922;5.430;2022-12-10T07:10:07;1.10;99.90
36002;DHT22;22070;50.922;5.430;2022-12-10T07:12:33;0.80;99.90
36002;DHT22;22070;50.922;5.430;2022-12-10T07:14:59;1.00;99.90
36002;DHT22;22070;50.922;5.430;2022-12-10T07:17:24;0.70;99.90
36002;DHT22;22070;50.922;5.430;2022-12-10T07:19:50;0.70;99.90
36002;DHT22;22070;50.922;5.430;2022-12-10T07:22:15;0.70;99.90
36002;DHT22;22070;50.922;5.430;2022-12-10T07:24:41;0.80;99.90
36002;DHT22;22070;50.922;5.430;2022-12-10T07:27:07;0.90;99.90
36002;DHT22;22070;50.922;5.430;2022-12-10T07:29:33;0.90;99.90
36002;DHT22;22070;50.922;5.430;2022-12-10T07:31:59;0.80;99.90
36002;DHT22;22070;50.922;5.430;2022-12-10T07:34:25;0.80;99.90
36002;DHT22;22070;50.922;5.430;2022-12-10T07:36:51;0.70;99.90
36002;DHT22;22070;50.922;5.430;2022-12-10T07:39:17;0.60;99.90
36002;DHT22;22070;50.922;5.430;2022-12-10T07:41:46;1.50;99.90
36002;DHT22;22070;50.922;5.430;2022-12-10T07:44:12;0.70;99.90
36002;DHT22;22070;50.922;5.430;2022-12-10T07:46:38;1.10;99.90
36002;DHT22;22070;50.922;5.430;2022-12-10T07:49:04;0.90;99.90
36002;DHT22;22070;50.922;5.430;2022-12-10T07:51:30;0.90;99.90
36002;DHT22;22070;50.922;5.430;2022-12-10T07:53:56;0.90;99.90
36002;DHT22;22070;50.922;5.430;2022-12-10T07:56:22;1.00;99.90
36002;DHT22;22070;50.922;5.430;2022-12-10T07:58:49;1.00;99.90
36002;DHT22;22070;50.922;5.430;2022-12-10T08:01:22;1.00;99.90
36002;DHT22;22070;50.922;5.430;2022-12-10T08:03:48;1.00;99.90
36002;DHT22;22070;50.922;5.430;2022-12-10T08:06:16;1.00;99.90
36002;DHT22;22070;50.922;5.430;2022-12-10T08:08:43;0.90;99.90
36002;DHT22;22070;50.922;5.430;2022-12-10T08:11:10;1.00;99.90
36002;DHT22;22070;50.922;5.430;2022-12-10T08:13:36;1.00;99.90
36002;DHT22;22070;50.922;5.430;2022-12-10T08:16:11;0.80;99.90
36002;DHT22;22070;50.922;5.430;2022-12-10T08:18:37;0.90;99.90
36002;DHT22;22070;50.922;5.430;2022-12-10T08:21:05;0.90;99.90
36002;DHT22;22070;50.922;5.430;2022-12-10T08:23:31;0.90;99.90
36002;DHT22;22070;50.922;5.430;2022-12-10T08:25:56;1.00;99.90
36002;DHT22;22070;50.922;5.430;2022-12-10T08:28:22;1.10;99.90
36002;DHT22;22070;50.922;5.430;2022-12-10T08:30:48;1.40;99.90
36002;DHT22;22070;50.922;5.430;2022-12-10T08:33:14;1.10;99.90
36002;DHT22;22070;50.922;5.430;2022-12-10T08:35:40;1.20;99.90
36002;DHT22;22070;50.922;5.430;2022-12-10T08:38:05;1.70;99.90
36002;DHT22;22070;50.922;5.430;2022-12-10T08:40:31;1.10;99.90
36002;DHT22;22070;50.922;5.430;2022-12-10T08:42:57;1.20;99.90
36002;DHT22;22070;50.922;5.430;2022-12-10T08:45:22;1.10;99.90
36002;DHT22;22070;50.922;5.430;2022-12-10T08:47:48;1.20;99.90
36002;DHT22;22070;50.922;5.430;2022-12-10T08:50:13;1.30;99.90
36002;DHT22;22070;50.922;5.430;2022-12-10T08:52:39;1.10;99.90
36002;DHT22;22070;50.922;5.430;2022-12-10T08:55:05;1.10;99.90
36002;DHT22;22070;50.922;5.430;2022-12-10T08:57:31;1.10;99.90
36002;DHT22;22070;50.922;5.430;2022-12-10T08:59:56;1.10;99.90
36002;DHT22;22070;50.922;5.430;2022-12-10T09:02:22;1.20;99.90
36002;DHT22;22070;50.922;5.430;2022-12-10T09:04:49;1.30;99.90
36002;DHT22;22070;50.922;5.430;2022-12-10T09:07:15;1.30;99.90
36002;DHT22;22070;50.922;5.430;2022-12-10T09:09:41;1.30;99.90
36002;DHT22;22070;50.922;5.430;2022-12-10T09:12:07;2.30;99.90
36002;DHT22;22070;50.922;5.430;2022-12-10T09:14:32;2.20;99.90
36002;DHT22;22070;50.922;5.430;2022-12-10T09:17:01;1.40;99.90
36002;DHT22;22070;50.922;5.430;2022-12-10T09:19:28;1.40;99.90
36002;DHT22;22070;50.922;5.430;2022-12-10T09:21:53;1.90;99.90
36002;DHT22;22070;50.922;5.430;2022-12-10T09:24:19;1.60;99.90
36002;DHT22;22070;50.922;5.430;2022-12-10T09:26:44;1.40;99.90
36002;DHT22;22070;50.922;5.430;2022-12-10T09:29:10;1.40;99.90
36002;DHT22;22070;50.922;5.430;2022-12-10T09:31:36;1.50;99.90
36002;DHT22;22070;50.922;5.430;2022-12-10T09:34:02;1.50;99.90
36002;DHT22;22070;50.922;5.430;2022-12-10T09:36:27;1.90;99.90
36002;DHT22;22070;50.922;5.430;2022-12-10T09:38:53;1.50;99.90
36002;DHT22;22070;50.922;5.430;2022-12-10T09:44:25;1.40;99.90
36002;DHT22;22070;50.922;5.430;2022-12-10T09:46:59;1.30;99.90
36002;DHT22;22070;50.922;5.430;2022-12-10T09:52:27;1.20;99.90
36002;DHT22;22070;50.922;5.430;2022-12-10T09:55:04;1.10;99.90
36002;DHT22;22070;50.922;5.430;2022-12-10T09:57:38;1.20;99.90
36002;DHT22;22070;50.922;5.430;2022-12-10T10:00:15;1.20;99.90
36002;DHT22;22070;50.922;5.430;2022-12-10T10:02:42;1.20;99.90
36002;DHT22;22070;50.922;5.430;2022-12-10T10:07:37;1.20;99.90
36002;DHT22;22070;50.922;5.430;2022-12-10T10:10:07;1.40;99.90
36002;DHT22;22070;50.922;5.430;2022-12-10T10:12:40;1.30;99.90
36002;DHT22;22070;50.922;5.430;2022-12-10T10:15:18;1.30;99.90
36002;DHT22;22070;50.922;5.430;2022-12-10T10:17:45;1.40;99.90
36002;DHT22;22070;50.922;5.430;2022-12-10T10:20:13;1.40;99.90
36002;DHT22;22070;50.922;5.430;2022-12-10T10:22:40;1.40;99.90
36002;DHT22;22070;50.922;5.430;2022-12-10T10:25:16;1.50;99.90
36002;DHT22;22070;50.922;5.430;2022-12-10T10:27:42;1.40;99.90
36002;DHT22;22070;50.922;5.430;2022-12-10T10:30:16;1.70;99.90
36002;DHT22;22070;50.922;5.430;2022-12-10T10:35:26;1.30;99.90
36002;DHT22;22070;50.922;5.430;2022-12-10T10:37:58;1.40;99.90
36002;DHT22;22070;50.922;5.430;2022-12-10T10:40:59;1.40;99.90
36002;DHT22;22070;50.922;5.430;2022-12-10T10:43:42;1.40;99.90
36002;DHT22;22070;50.922;5.430;2022-12-10T10:46:20;1.50;99.90
36002;DHT22;22070;50.922;5.430;2022-12-10T10:48:46;1.90;99.90
36002;DHT22;22070;50.922;5.430;2022-12-10T10:53:52;1.70;99.90
36002;DHT22;22070;50.922;5.430;2022-12-10T10:56:25;1.70;99.90
36002;DHT22;22070;50.922;5.430;2022-12-10T10:59:04;1.70;99.90
36002;DHT22;22070;50.922;5.430;2022-12-10T11:01:49;1.70;99.90
36002;DHT22;22070;50.922;5.430;2022-12-10T11:04:16;1.60;99.90
36002;DHT22;22070;50.922;5.430;2022-12-10T11:06:43;1.80;99.90
36002;DHT22;22070;50.922;5.430;2022-12-10T11:09:43;1.70;99.90
36002;DHT22;22070;50.922;5.430;2022-12-10T11:12:05;1.70;99.90
36002;DHT22;22070;50.922;5.430;2022-12-10T11:14:43;1.60;99.90
36002;DHT22;22070;50.922;5.430;2022-12-10T11:19:59;2.00;99.90
36002;DHT22;22070;50.922;5.430;2022-12-10T11:24:48;1.50;99.90
36002;DHT22;22070;50.922;5.430;2022-12-10T11:27:38;1.50;99.90
36002;DHT22;22070;50.922;5.430;2022-12-10T11:30:26;1.50;99.90
36002;DHT22;22070;50.922;5.430;2022-12-10T11:38:29;1.60;99.90
36002;DHT22;22070;50.922;5.430;2022-12-10T11:41:12;1.60;99.90
36002;DHT22;22070;50.922;5.430;2022-12-10T11:46:42;1.60;99.90
36002;DHT22;22070;50.922;5.430;2022-12-10T12:00:26;1.60;99.90
36002;DHT22;22070;50.922;5.430;2022-12-10T12:05:46;1.50;99.90
36002;DHT22;22070;50.922;5.430;2022-12-10T12:08:23;1.40;99.90
36002;DHT22;22070;50.922;5.430;2022-12-10T12:11:08;1.70;99.90
36002;DHT22;22070;50.922;5.430;2022-12-10T12:14:22;1.50;99.90
36002;DHT22;22070;50.922;5.430;2022-12-10T12:19:40;1.50;99.90
36002;DHT22;22070;50.922;5.430;2022-12-10T12:22:33;1.80;99.90
36002;DHT22;22070;50.922;5.430;2022-12-10T12:27:57;1.50;99.90
36002;DHT22;22070;50.922;5.430;2022-12-10T12:30:25;1.60;99.90
36002;DHT22;22070;50.922;5.430;2022-12-10T12:32:58;1.60;99.90
36002;DHT22;22070;50.922;5.430;2022-12-10T12:38:06;1.60;99.90
36002;DHT22;22070;50.922;5.430;2022-12-10T12:46:09;1.50;99.90
36002;DHT22;22070;50.922;5.430;2022-12-10T12:48:53;1.50;99.90
36002;DHT22;22070;50.922;5.430;2022-12-10T12:54:25;1.50;99.90
36002;DHT22;22070;50.922;5.430;2022-12-10T12:57:13;1.60;99.90
36002;DHT22;22070;50.922;5.430;2022-12-10T13:00:00;1.70;99.90
36002;DHT22;22070;50.922;5.430;2022-12-10T13:05:28;1.60;99.90
36002;DHT22;22070;50.922;5.430;2022-12-10T13:13:41;1.70;99.90
36002;DHT22;22070;50.922;5.430;2022-12-10T13:43:36;1.80;99.90
36002;DHT22;22070;50.922;5.430;2022-12-10T13:46:31;1.90;99.90
36002;DHT22;22070;50.922;5.430;2022-12-10T13:48:58;1.80;99.90
36002;DHT22;22070;50.922;5.430;2022-12-10T13:51:39;1.70;99.90
36002;DHT22;22070;50.922;5.430;2022-12-10T13:54:29;1.70;99.90
36002;DHT22;22070;50.922;5.430;2022-12-10T14:02:54;1.80;99.90
36002;DHT22;22070;50.922;5.430;2022-12-10T14:08:01;1.80;99.90
36002;DHT22;22070;50.922;5.430;2022-12-10T14:10:32;1.80;99.90
36002;DHT22;22070;50.922;5.430;2022-12-10T14:12:59;1.80;99.90
36002;DHT22;22070;50.922;5.430;2022-12-10T14:15:27;1.90;99.90
36002;DHT22;22070;50.922;5.430;2022-12-10T14:18:00;1.70;99.90
36002;DHT22;22070;50.922;5.430;2022-12-10T14:20:32;1.80;99.90
36002;DHT22;22070;50.922;5.430;2022-12-10T14:23:04;1.90;99.90
36002;DHT22;22070;50.922;5.430;2022-12-10T14:25:48;1.90;99.90
36002;DHT22;22070;50.922;5.430;2022-12-10T14:28:18;1.70;99.90
36002;DHT22;22070;50.922;5.430;2022-12-10T14:30:46;1.60;99.90
36002;DHT22;22070;50.922;5.430;2022-12-10T14:33:18;1.80;99.90
36002;DHT22;22070;50.922;5.430;2022-12-10T14:35:48;1.50;99.90
36002;DHT22;22070;50.922;5.430;2022-12-10T14:38:34;1.70;99.90
36002;DHT22;22070;50.922;5.430;2022-12-10T14:41:01;1.50;99.90
36002;DHT22;22070;50.922;5.430;2022-12-10T14:43:39;1.50;99.90
36002;DHT22;22070;50.922;5.430;2022-12-10T14:46:33;1.40;99.90
36002;DHT22;22070;50.922;5.430;2022-12-10T14:48:58;1.50;99.90
36002;DHT22;22070;50.922;5.430;2022-12-10T14:51:26;1.50;99.90
36002;DHT22;22070;50.922;5.430;2022-12-10T14:53:53;1.80;99.90
36002;DHT22;22070;50.922;5.430;2022-12-10T14:59:07;1.50;99.90
36002;DHT22;22070;50.922;5.430;2022-12-10T15:01:42;1.50;99.90
36002;DHT22;22070;50.922;5.430;2022-12-10T15:04:17;1.50;99.90
36002;DHT22;22070;50.922;5.430;2022-12-10T15:06:44;1.60;99.90
36002;DHT22;22070;50.922;5.430;2022-12-10T15:09:23;1.60;99.90
36002;DHT22;22070;50.922;5.430;2022-12-10T15:11:55;1.60;99.90
36002;DHT22;22070;50.922;5.430;2022-12-10T15:14:22;1.60;99.90
36002;DHT22;22070;50.922;5.430;2022-12-10T15:16:49;1.60;99.90
36002;DHT22;22070;50.922;5.430;2022-12-10T15:19:24;1.60;99.90
36002;DHT22;22070;50.922;5.430;2022-12-10T15:21:54;1.70;99.90
36002;DHT22;22070;50.922;5.430;2022-12-10T15:24:32;1.70;99.90
36002;DHT22;22070;50.922;5.430;2022-12-10T15:27:00;1.80;99.90
36002;DHT22;22070;50.922;5.430;2022-12-10T15:32:01;1.90;99.90
36002;DHT22;22070;50.922;5.430;2022-12-10T15:34:30;1.70;99.90
36002;DHT22;22070;50.922;5.430;2022-12-10T15:37:24;1.70;99.90
36002;DHT22;22070;50.922;5.430;2022-12-10T15:39:56;1.70;99.90
36002;DHT22;22070;50.922;5.430;2022-12-10T15:45:24;1.60;99.90
36002;DHT22;22070;50.922;5.430;2022-12-10T15:47:57;1.50;99.90
36002;DHT22;22070;50.922;5.430;2022-12-10T15:50:24;1.50;99.90
36002;DHT22;22070;50.922;5.430;2022-12-10T15:52:50;1.60;99.90
36002;DHT22;22070;50.922;5.430;2022-12-10T15:55:17;1.60;99.90
36002;DHT22;22070;50.922;5.430;2022-12-10T15:57:43;1.80;99.90
36002;DHT22;22070;50.922;5.430;2022-12-10T16:00:24;1.70;99.90
36002;DHT22;22070;50.922;5.430;2022-12-10T16:07:52;1.60;99.90
36002;DHT22;22070;50.922;5.430;2022-12-10T16:10:20;1.60;99.90
36002;DHT22;22070;50.922;5.430;2022-12-10T16:13:11;1.60;99.90
36002;DHT22;22070;50.922;5.430;2022-12-10T16:15:50;1.50;99.90
36002;DHT22;22070;50.922;5.430;2022-12-10T16:18:16;1.50;99.90
36002;DHT22;22070;50.922;5.430;2022-12-10T16:20:42;1.60;99.90
36002;DHT22;22070;50.922;5.430;2022-12-10T16:23:09;1.60;99.90
36002;DHT22;22070;50.922;5.430;2022-12-10T16:25:37;1.60;99.90
36002;DHT22;22070;50.922;5.430;2022-12-10T16:28:03;1.70;99.90
36002;DHT22;22070;50.922;5.430;2022-12-10T16:30:31;1.60;99.90
36002;DHT22;22070;50.922;5.430;2022-12-10T16:32:58;1.50;99.90
36002;DHT22;22070;50.922;5.430;2022-12-10T16:35:24;1.60;99.90
36002;DHT22;22070;50.922;5.430;2022-12-10T16:37:50;1.50;99.90
36002;DHT22;22070;50.922;5.430;2022-12-10T16:40:23;2.00;99.90
36002;DHT22;22070;50.922;5.430;2022-12-10T16:42:49;1.50;99.90
36002;DHT22;22070;50.922;5.430;2022-12-10T16:45:37;1.50;99.90
36002;DHT22;22070;50.922;5.430;2022-12-10T16:48:04;1.40;99.90
36002;DHT22;22070;50.922;5.430;2022-12-10T16:50:30;1.40;99.90
36002;DHT22;22070;50.922;5.430;2022-12-10T16:52:56;1.70;99.90
36002;DHT22;22070;50.922;5.430;2022-12-10T16:55:24;2.10;99.90
36002;DHT22;22070;50.922;5.430;2022-12-10T16:57:51;1.80;99.90
36002;DHT22;22070;50.922;5.430;2022-12-10T17:00:23;1.30;99.90
36002;DHT22;22070;50.922;5.430;2022-12-10T17:02:50;1.30;99.90
36002;DHT22;22070;50.922;5.430;2022-12-10T17:07:47;1.20;99.90
36002;DHT22;22070;50.922;5.430;2022-12-10T17:10:12;1.30;99.90
36002;DHT22;22070;50.922;5.430;2022-12-10T17:12:40;1.30;99.90
36002;DHT22;22070;50.922;5.430;2022-12-10T17:15:11;1.30;99.90
36002;DHT22;22070;50.922;5.430;2022-12-10T17:17:37;1.30;99.90
36002;DHT22;22070;50.922;5.430;2022-12-10T17:20:14;1.40;99.90
36002;DHT22;22070;50.922;5.430;2022-12-10T17:22:40;1.30;99.90
36002;DHT22;22070;50.922;5.430;2022-12-10T17:25:05;1.30;99.90
36002;DHT22;22070;50.922;5.430;2022-12-10T17:27:31;1.30;99.90
36002;DHT22;22070;50.922;5.430;2022-12-10T17:29:57;1.30;99.90
36002;DHT22;22070;50.922;5.430;2022-12-10T17:32:23;1.50;99.90
36002;DHT22;22070;50.922;5.430;2022-12-10T17:34:48;1.80;99.90
36002;DHT22;22070;50.922;5.430;2022-12-10T17:37:17;1.40;99.90
36002;DHT22;22070;50.922;5.430;2022-12-10T17:39:43;1.50;99.90
36002;DHT22;22070;50.922;5.430;2022-12-10T17:42:09;1.50;99.90
36002;DHT22;22070;50.922;5.430;2022-12-10T17:44:35;2.00;99.90
36002;DHT22;22070;50.922;5.430;2022-12-10T17:47:02;1.20;99.90
36002;DHT22;22070;50.922;5.430;2022-12-10T17:49:38;1.50;99.90
36002;DHT22;22070;50.922;5.430;2022-12-10T17:52:04;1.20;99.90
36002;DHT22;22070;50.922;5.430;2022-12-10T17:54:29;1.20;99.90
36002;DHT22;22070;50.922;5.430;2022-12-10T17:56:55;1.20;99.90
36002;DHT22;22070;50.922;5.430;2022-12-10T17:59:20;1.30;99.90
36002;DHT22;22070;50.922;5.430;2022-12-10T18:01:46;1.30;99.90
36002;DHT22;22070;50.922;5.430;2022-12-10T18:04:12;1.50;99.90
36002;DHT22;22070;50.922;5.430;2022-12-10T18:06:37;1.30;99.90
36002;DHT22;22070;50.922;5.430;2022-12-10T18:09:03;1.30;99.90
36002;DHT22;22070;50.922;5.430;2022-12-10T18:11:32;1.20;99.90
36002;DHT22;22070;50.922;5.430;2022-12-10T18:13:58;1.20;99.90